Nearby Meteorological Terminal Aviation Routine Weather Reports (METAR)
KAVP - Avoca/Wilkes B., Pennsylvania, USA
Distance from station: NE 13mi, 20km
Updated: Thu, 20-Sep-2018 5:54pm EDT
Clear
Clear
 Wind from varies
Wind: varies 6 mph , 9 km/h
Temperature: 70°F , 21°C
Dew Point: 63°F , 17°C
Humidity: 78%
Barometer: 30.19 inHg , 1022.4 hPa
Clouds: Clear
Visibility: 7 miles , 11 km
2018/09/20 21:54 KAVP 202154Z VRB05KT 7SM CLR 21/17 A3019 RMK AO2 SLP219 T02060167
KMPO - Mt. Pocono, Pennsylvania, USA
Distance from station: ESE 28mi, 45km
Updated: Thu, 20-Sep-2018 6:01pm EDT
Fog, Overcast
Fog, Overcast
 Wind from SE
Wind: SE 5 mph , 7 km/h
Temperature: 61°F , 16°C
Dew Point: 61°F , 16°C
Humidity: 100%
Barometer: 30.25 inHg , 1024.4 hPa
Summary: Fog
Clouds: Overcast
Visibility: 1/4 mile , 2 km
Cloud details: Overcast 100 ft
2018/09/20 22:01 KMPO 202201Z AUTO 13004KT 1/4SM FG VV001 16/16 A3025 RMK AO2 T01560156
 
KABE - Allentown, Pennsylvania, USA
Distance from station: SSE 46mi, 74km
Updated: Thu, 20-Sep-2018 5:51pm EDT
Overcast
Overcast
 Wind from ESE
Wind: ESE 6 mph , 9 km/h
Temperature: 72°F , 22°C
Dew Point: 61°F , 16°C
Humidity: 69%
Barometer: 30.21 inHg , 1023 hPa
Clouds: Overcast
Visibility: 10 miles , 16 km
Cloud details: Overcast 2100 ft
2018/09/20 21:51 KABE 202151Z 12005KT 10SM OVC021 22/16 A3021 RMK AO2 SLP227 T02170161
KXLL - Allentown Queen, Pennsylvania, USA
Distance from station: SSE 50mi, 81km
Updated: Thu, 20-Sep-2018 5:55pm EDT
Overcast
Overcast
 Wind from E
Wind: E 5 mph , 7 km/h
Barometer: 30.22 inHg , 1023.4 hPa
Clouds: Overcast
Visibility: 10 miles , 16 km
Cloud details: Overcast 2300 ft
2018/09/20 21:55 KXLL 202155Z AUTO 10004KT 10SM OVC023 A3022 RMK AO2
 
KIPT - Williamsport, Pennsylvania, USA
Distance from station: W 52mi, 84km
Updated: Thu, 20-Sep-2018 5:54pm EDT
Clear
Clear
 Wind from SSE
Wind: SSE 7 mph , 11 km/h
Temperature: 75°F , 24°C
Dew Point: 64°F , 18°C
Humidity: 69%
Barometer: 30.12 inHg , 1020 hPa
Clouds: Clear
Visibility: 10 miles , 16 km
2018/09/20 21:54 KIPT 202154Z 16006KT 10SM CLR 24/18 A3012 RMK AO2 SLP198 T02440178
KSEG - Selinsgrove, Pennsylvania, USA
Distance from station: WSW 57mi, 92km
Updated: Thu, 20-Sep-2018 5:53pm EDT
Clear
Clear
 Wind from calm
Wind: Calm
Temperature: 75°F , 24°C
Dew Point: 66°F , 19°C
Humidity: 74%
Barometer: 30.16 inHg , 1021.3 hPa
Clouds: Clear
Visibility: 10 miles , 16 km
2018/09/20 21:53 KSEG 202153Z AUTO 00000KT 10SM CLR 24/19 A3016 RMK AO2 SLP210 T02390189
 
KRDG - Reading, Pennsylvania, USA
Distance from station: S 59mi, 95km
Updated: Thu, 20-Sep-2018 6:01pm EDT
Overcast
Overcast
 Wind from SE
Wind: SE 9 mph , 15 km/h
Temperature: 73°F , 23°C
Dew Point: 66°F , 19°C
Humidity: 78%
Barometer: 30.17 inHg , 1021.7 hPa
Clouds: Overcast
Visibility: 10 miles , 16 km
Cloud details: Mostly cloudy 3500 ft
Overcast 5000 ft
2018/09/20 22:01 KRDG 202201Z 13008KT 10SM BKN035 OVC050 23/19 A3017 RMK AO2 T02280194
KUKT - Quakertown Arp, Pennsylvania, USA
Distance from station: SSE 61mi, 98km
Updated: Thu, 20-Sep-2018 5:55pm EDT
Overcast
Overcast
 Wind from ESE
Wind: ESE 6 mph , 9 km/h
Temperature: 70°F , 21°C
Dew Point: 64°F , 18°C
Humidity: 83%
Barometer: 30.22 inHg , 1023.4 hPa
Clouds: Overcast
Visibility: 10 miles , 16 km
Cloud details: Overcast 1800 ft
2018/09/20 21:55 KUKT 202155Z AUTO 11005KT 10SM OVC018 21/18 A3022 RMK A01
 
K12N - Andover, New Jersey, USA
Distance from station: ESE 63mi, 101km
Updated: Thu, 20-Sep-2018 5:54pm EDT

 Wind from calm
Wind: Calm
Temperature: 66°F , 19°C
Dew Point: 63°F , 17°C
Humidity: 88%
Barometer: 30.23 inHg , 1023.7 hPa
2018/09/20 21:54 K12N 202154Z AUTO 00000KT 19/17 A3023 RMK AO1 SLP232 T01940167
KMUI - Muir Aaf/Indiant, Pennsylvania, USA
Distance from station: SSW 65mi, 105km
Updated: Thu, 20-Sep-2018 5:56pm EDT
Mostly cloudy
Mostly cloudy
 Wind from ENE
Wind: ENE 8 mph , 13 km/h
Temperature: 73°F , 23°C
Dew Point: 66°F , 19°C
Humidity: 78%
Barometer: 30.17 inHg , 1021.7 hPa
Clouds: Mostly cloudy
Visibility: 10 miles , 16 km
Cloud details: Partly cloudy 2100 ft
Mostly cloudy 2700 ft
Mostly cloudy 3200 ft
Mostly cloudy 6000 ft
2018/09/20 21:56 KMUI 202156Z 07007KT 10SM SCT021 BKN027 BKN032 BKN060 23/19 A3017 RMK AO2A SLP218 T02280191 $
 
KFWN - Sussex, New Jersey, USA
Distance from station: E 66mi, 107km
Updated: Thu, 20-Sep-2018 5:53pm EDT
Overcast
Overcast
 Wind from calm
Wind: Calm
Temperature: 66°F , 19°C
Dew Point: 63°F , 17°C
Humidity: 88%
Barometer: 30.23 inHg , 1023.7 hPa
Clouds: Overcast
Visibility: 10 miles , 16 km
Cloud details: Overcast 2200 ft
2018/09/20 21:53 KFWN 202153Z AUTO 00000KT 10SM OVC022 19/17 A3023 RMK AO2 RAB40E50 SLP234 P0000 T01940172
KMSV - Monticello, New York, USA
Distance from station: ENE 67mi, 108km
Updated: Thu, 20-Sep-2018 5:56pm EDT
Overcast
Overcast
 Wind from SE
Wind: SE 6 mph , 9 km/h
Temperature: 61°F , 16°C
Dew Point: 59°F , 15°C
Humidity: 94%
Barometer: 30.26 inHg , 1024.7 hPa
Clouds: Overcast
Visibility: 10 miles , 16 km
Cloud details: Overcast 700 ft
2018/09/20 21:56 KMSV 202156Z AUTO 14005KT 10SM OVC007 16/15 A3026 RMK AO2 SLP245 T01610150
 
KBGM - Binghamton, New York, USA
Distance from station: N 69mi, 111km
Updated: Thu, 20-Sep-2018 5:53pm EDT
Clear
Clear
 Wind from S
Wind: S 5 mph , 7 km/h
Temperature: 68°F , 20°C
Dew Point: 61°F , 16°C
Humidity: 78%
Barometer: 30.18 inHg , 1022 hPa
Clouds: Clear
Visibility: 10 miles , 16 km
2018/09/20 21:53 KBGM 202153Z 17004KT 10SM CLR 20/16 A3018 RMK AO2 SLP218 T02000156
KPTW - Pottstown, Pennsylvania, USA
Distance from station: SSE 71mi, 114km
Updated: Thu, 20-Sep-2018 5:54pm EDT
Mostly cloudy
Mostly cloudy
 Wind from varies
Wind: varies 3 mph , 6 km/h
Temperature: 70°F , 21°C
Dew Point: 64°F , 18°C
Humidity: 83%
Barometer: 30.22 inHg , 1023.4 hPa
Clouds: Mostly cloudy
Visibility: 9 miles , 14 km
Cloud details: Partly cloudy 2400 ft
Mostly cloudy 4000 ft
2018/09/20 21:54 KPTW 202154Z AUTO VRB03KT 9SM SCT024 BKN040 21/18 A3022 RMK AO2 SLP228 T02060178
 
KDYL - Doylestown, Pennsylvania, USA
Distance from station: SE 74mi, 119km
Updated: Thu, 20-Sep-2018 5:54pm EDT
Overcast
Overcast
 Wind from calm
Wind: Calm
Temperature: 70°F , 21°C
Dew Point: 63°F , 17°C
Humidity: 78%
Barometer: 30.21 inHg , 1023 hPa
Clouds: Overcast
Visibility: 10 miles , 16 km
Cloud details: Overcast 4200 ft
2018/09/20 21:54 KDYL 202154Z AUTO 00000KT 10SM OVC042 21/17 A3021 RMK AO2 SLP226 T02060167
KSMQ - Somerville, New Jersey, USA
Distance from station: ESE 77mi, 124km
Updated: Thu, 20-Sep-2018 5:53pm EDT
Overcast
Overcast
 Wind from calm
Wind: Calm
Temperature: 70°F , 21°C
Dew Point: 63°F , 17°C
Humidity: 78%
Barometer: 30.20 inHg , 1022.7 hPa
Clouds: Overcast
Visibility: 10 miles , 16 km
Cloud details: Overcast 3200 ft
2018/09/20 21:53 KSMQ 202153Z AUTO 00000KT 10SM OVC032 21/17 A3020 RMK AO2 SLP227 T02060172
 
KLNS - Lancaster, Pennsylvania, USA
Distance from station: SSW 79mi, 127km
Updated: Thu, 20-Sep-2018 5:53pm EDT
Overcast
Overcast
 Wind from ESE
Wind: ESE 8 mph , 13 km/h
Temperature: 75°F , 24°C
Dew Point: 68°F , 20°C
Humidity: 78%
Barometer: 30.18 inHg , 1022 hPa
Clouds: Overcast
Visibility: 10 miles , 16 km
Cloud details: Mostly cloudy 2400 ft
Overcast 3200 ft
2018/09/20 21:53 KLNS 202153Z 12007KT 10SM BKN024 OVC032 24/20 A3018 RMK AO2 SLP216 T02390200
KELM - Elmira, New York, USA
Distance from station: NW 82mi, 132km
Updated: Thu, 20-Sep-2018 5:53pm EDT
Clear
Clear
 Wind from E
Wind: E 5 mph , 7 km/h
Temperature: 73°F , 23°C
Dew Point: 63°F , 17°C
Humidity: 69%
Barometer: 30.13 inHg , 1020.3 hPa
Clouds: Clear
Visibility: 10 miles , 16 km
2018/09/20 21:53 KELM 202153Z 08004KT 10SM CLR 23/17 A3013 RMK AO2 SLP200 T02330172
 
KLOM - Philly Wings F, Pennsylvania, USA
Distance from station: SSE 82mi, 132km
Updated: Thu, 20-Sep-2018 5:55pm EDT
Mostly cloudy
Mostly cloudy
 Wind from ESE
Wind: ESE 5 mph , 7 km/h
Temperature: 68°F , 20°C
Dew Point: 63°F , 17°C
Humidity: 83%
Barometer: 30.22 inHg , 1023.4 hPa
Clouds: Mostly cloudy
Visibility: 10 miles , 16 km
Cloud details: Partly cloudy 2300 ft
Partly cloudy 2700 ft
Mostly cloudy 4900 ft
2018/09/20 21:55 KLOM 202155Z AUTO 11004KT 10SM SCT023 SCT027 BKN049 20/17 A3022 RMK AO1
KMMU - Morristown Muni, New Jersey, USA
Distance from station: ESE 83mi, 134km
Updated: Thu, 20-Sep-2018 5:45pm EDT
Overcast
Overcast
 Wind from S
Wind: S 3 mph , 6 km/h
Temperature: 70°F , 21°C
Dew Point: 59°F , 15°C
Humidity: 69%
Barometer: 30.23 inHg , 1023.7 hPa
Clouds: Overcast
Visibility: 10 miles , 16 km
Cloud details: Partly cloudy 3300 ft
Mostly cloudy 4200 ft
Overcast 4800 ft
2018/09/20 21:45 KMMU 202145Z 19003KT 10SM SCT033 BKN042 OVC048 21/15 A3023

Metar display script from Saratoga-Weather.org


Cairn Terrier Rescue
teddybearweather.com 2009-2018